Time;durP1;ratioP1;P1;durP2;ratioP2;P2;SDS_P1;SDS_P2;PMS_P1;PMS_P2;Temp;Humidity;BMP_temperature;BMP_pressure;BME280_temperature;BME280_humidity;BME280_pressure;Samples;Min_cycle;Max_cycle;Signal;HPM_P1;HPM_P2
2021/10/09 00:04:53;;;;;;;46.50;30.37;;;;;7.60;102298.00;;;;10314653;28;20195;-78
2021/10/09 00:09:58;;;;;;;42.47;31.20;;;;;7.60;102294.00;;;;10291462;28;20200;-79
2021/10/09 00:15:02;;;;;;;44.33;29.33;;;;;7.60;102300.00;;;;10311806;28;20203;-79
2021/10/09 00:20:03;;;;;;;56.83;33.03;;;;;7.50;102295.00;;;;10328464;28;20219;-78
2021/10/09 00:25:06;;;;;;;46.50;29.30;;;;;7.50;102301.00;;;;10313368;28;20198;-76
2021/10/09 00:30:08;;;;;;;51.07;34.50;;;;;7.40;102298.00;;;;10304069;28;20199;-76
2021/10/09 00:35:10;;;;;;;48.47;32.40;;;;;7.40;102296.00;;;;10293770;28;20287;-76
2021/10/09 00:40:12;;;;;;;38.70;27.70;;;;;7.40;102296.00;;;;10311910;28;20216;-78
2021/10/09 00:45:13;;;;;;;37.37;27.43;;;;;7.30;102283.00;;;;10313409;28;20222;-78
2021/10/09 00:50:14;;;;;;;41.13;28.43;;;;;7.30;102290.00;;;;10306590;28;20203;-78
2021/10/09 00:55:16;;;;;;;39.90;30.57;;;;;7.30;102285.00;;;;10337770;28;20317;-79
2021/10/09 01:00:17;;;;;;;37.43;28.40;;;;;7.30;102284.00;;;;10335391;28;20273;-79
2021/10/09 01:05:19;;;;;;;39.40;29.20;;;;;7.30;102285.00;;;;10369247;28;20198;-79
2021/10/09 01:10:20;;;;;;;42.80;31.93;;;;;7.30;102276.00;;;;10328856;28;20264;-79
2021/10/09 01:15:24;;;;;;;49.07;32.53;;;;;7.30;102265.00;;;;10280613;28;20672;-79
2021/10/09 01:20:55;;;;;;;45.10;34.13;;;;;7.30;102272.00;;;;10332605;28;20223;-77
2021/10/09 01:26:01;;;;;;;45.43;32.07;;;;;7.20;102268.00;;;;10320165;28;20211;-79
2021/10/09 01:31:03;;;;;;;44.30;31.17;;;;;7.20;102266.00;;;;10312544;28;20592;-79
2021/10/09 01:36:04;;;;;;;46.90;33.00;;;;;7.20;102264.00;;;;10276568;28;20203;-79
2021/10/09 01:41:14;;;;;;;45.23;32.57;;;;;7.20;102256.00;;;;10309882;28;20220;-79
2021/10/09 01:46:16;;;;;;;41.17;30.53;;;;;7.10;102258.00;;;;10326772;28;20231;-79
2021/10/09 01:51:18;;;;;;;52.40;33.63;;;;;7.00;102248.00;;;;10311495;28;20202;-79
2021/10/09 01:56:21;;;;;;;44.83;30.77;;;;;7.00;102252.00;;;;10332569;28;20854;-78
2021/10/09 02:01:22;;;;;;;45.97;32.60;;;;;6.90;102261.00;;;;10345686;28;20216;-79
2021/10/09 02:06:24;;;;;;;49.80;33.43;;;;;6.90;102247.00;;;;10310025;28;20227;-78
2021/10/09 02:11:37;;;;;;;90.90;39.10;;;;;6.80;102242.00;;;;10293171;28;20195;-78
2021/10/09 02:27:24;;;;;;;90.07;36.80;;;;;6.80;102242.00;;;;10319623;28;20247;-79
2021/10/09 02:32:25;;;;;;;87.23;37.80;;;;;6.70;102248.00;;;;10315208;28;20257;-79
2021/10/09 02:37:27;;;;;;;71.00;37.80;;;;;6.70;102251.00;;;;10293164;28;20295;-79
2021/10/09 02:42:28;;;;;;;56.90;35.13;;;;;6.70;102243.00;;;;10293481;28;20219;-79
2021/10/09 02:47:30;;;;;;;49.80;34.33;;;;;6.70;102235.00;;;;10334916;28;20207;-79
2021/10/09 02:52:34;;;;;;;59.23;33.10;;;;;6.70;102253.00;;;;10301471;28;20646;-79
2021/10/09 02:57:38;;;;;;;93.27;36.20;;;;;6.70;102243.00;;;;10331929;28;20216;-78
2021/10/09 03:02:44;;;;;;;82.37;35.20;;;;;6.60;102239.00;;;;10332621;28;20611;-79
2021/10/09 03:07:45;;;;;;;80.27;35.23;;;;;6.60;102245.00;;;;10292030;28;20204;-79
2021/10/09 03:12:47;;;;;;;137.43;40.03;;;;;6.60;102254.00;;;;10292853;28;20212;-78
2021/10/09 03:17:49;;;;;;;93.37;35.37;;;;;6.60;102235.00;;;;10303668;28;20291;-78
2021/10/09 03:22:50;;;;;;;201.53;45.87;;;;;6.60;102247.00;;;;10347552;28;20280;-79
2021/10/09 03:27:52;;;;;;;136.67;45.57;;;;;6.70;102238.00;;;;10307764;28;20235;-78
2021/10/09 03:32:53;;;;;;;212.23;45.97;;;;;6.80;102244.00;;;;10277430;28;20579;-79
2021/10/09 03:37:54;;;;;;;186.20;46.63;;;;;6.80;102249.00;;;;10334375;28;20199;-79
2021/10/09 03:43:10;;;;;;;162.43;43.70;;;;;6.80;102245.00;;;;10335069;28;20227;-78
2021/10/09 03:48:23;;;;;;;143.10;42.63;;;;;6.80;102242.00;;;;10313653;28;20203;-79
2021/10/09 03:53:25;;;;;;;149.37;42.87;;;;;6.80;102249.00;;;;10313809;28;20207;-79
2021/10/09 03:58:27;;;;;;;164.73;46.23;;;;;6.90;102241.00;;;;10307751;28;20217;-79
2021/10/09 04:03:28;;;;;;;190.03;48.67;;;;;6.90;102234.00;;;;10312079;28;20309;-79
2021/10/09 04:08:31;;;;;;;207.73;54.37;;;;;7.00;102252.00;;;;10331279;28;20200;-78
2021/10/09 04:13:33;;;;;;;356.83;73.33;;;;;7.10;102248.00;;;;10331631;28;20200;-79
2021/10/09 04:18:35;;;;;;;399.20;78.63;;;;;7.30;102253.00;;;;10347457;28;20213;-78
2021/10/09 04:23:36;;;;;;;389.77;79.13;;;;;7.40;102250.00;;;;10347277;28;20281;-79
2021/10/09 04:28:38;;;;;;;360.13;74.53;;;;;7.40;102244.00;;;;10334359;28;20206;-79
2021/10/09 04:33:42;;;;;;;372.97;77.07;;;;;7.40;102260.00;;;;10330961;28;20330;-79
2021/10/09 04:38:43;;;;;;;291.17;66.03;;;;;7.40;102252.00;;;;10315385;28;20709;-79
2021/10/09 04:43:45;;;;;;;273.10;65.60;;;;;7.40;102253.00;;;;10346827;28;20497;-78
2021/10/09 04:48:48;;;;;;;299.07;66.83;;;;;7.40;102257.00;;;;10313419;28;20298;-79
2021/10/09 04:53:51;;;;;;;260.07;60.20;;;;;7.30;102255.00;;;;10298534;28;20232;-79
2021/10/09 04:58:54;;;;;;;285.07;59.93;;;;;7.30;102258.00;;;;10329215;28;20218;-79
2021/10/09 05:03:57;;;;;;;317.37;66.27;;;;;7.30;102252.00;;;;10292847;28;20227;-79
2021/10/09 05:09:00;;;;;;;267.27;62.17;;;;;7.20;102261.00;;;;10273343;28;20204;-79
2021/10/09 05:14:02;;;;;;;330.93;69.10;;;;;7.20;102271.00;;;;10310455;28;20220;-79
2021/10/09 05:19:04;;;;;;;269.53;62.60;;;;;7.30;102274.00;;;;10328040;28;20231;-79
2021/10/09 05:24:07;;;;;;;287.20;66.10;;;;;7.30;102267.00;;;;10288529;28;20211;-79
2021/10/09 05:29:15;;;;;;;321.17;65.80;;;;;7.30;102280.00;;;;10309006;28;20217;-79
2021/10/09 05:34:18;;;;;;;294.57;60.83;;;;;7.30;102279.00;;;;10288014;28;20251;-79
2021/10/09 05:39:21;;;;;;;238.40;59.33;;;;;7.30;102282.00;;;;10330608;28;20221;-79
2021/10/09 05:44:23;;;;;;;354.33;72.73;;;;;7.30;102285.00;;;;10309773;28;20211;-78
2021/10/09 05:49:24;;;;;;;287.57;63.63;;;;;7.30;102288.00;;;;10309347;28;20204;-78
2021/10/09 07:03:42;;;;;;;121.73;37.93;;;;;8.10;102344.00;;;;10336809;28;20220;-79
2021/10/09 07:08:43;;;;;;;109.47;39.43;;;;;8.30;102342.00;;;;10304702;28;20278;-78
2021/10/09 07:14:08;;;;;;;99.13;37.80;;;;;8.40;102343.00;;;;10329069;28;21090;-78
2021/10/09 07:19:12;;;;;;;93.63;34.67;;;;;8.40;102350.00;;;;10347834;28;20195;-79
2021/10/09 07:24:16;;;;;;;112.50;35.63;;;;;8.50;102352.00;;;;10322380;28;20203;-78
2021/10/09 07:29:18;;;;;;;100.93;34.17;;;;;8.60;102359.00;;;;10321033;28;20261;-78
2021/10/09 07:34:22;;;;;;;136.07;36.33;;;;;8.90;102365.00;;;;10331593;28;20199;-78
2021/10/09 07:39:25;;;;;;;121.30;33.83;;;;;9.00;102364.00;;;;10318838;28;20218;-78
2021/10/09 07:44:26;;;;;;;116.33;35.03;;;;;9.20;102361.00;;;;10316450;28;20214;-78
2021/10/09 07:49:28;;;;;;;100.73;34.00;;;;;9.50;102374.00;;;;10306225;28;20211;-78
2021/10/09 07:54:29;;;;;;;93.53;34.97;;;;;9.70;102375.00;;;;10315869;28;20227;-79
2021/10/09 07:59:30;;;;;;;133.80;37.17;;;;;9.90;102386.00;;;;10316502;28;21010;-78
2021/10/09 08:04:33;;;;;;;107.27;33.17;;;;;10.00;102378.00;;;;10290879;28;20200;-78
2021/10/09 08:09:35;;;;;;;119.03;34.73;;;;;10.10;102395.00;;;;10328732;28;20286;-79
2021/10/09 08:14:37;;;;;;;120.97;34.20;;;;;10.10;102395.00;;;;10304985;28;20303;-79
2021/10/09 08:19:38;;;;;;;104.87;35.60;;;;;10.50;102393.00;;;;10323532;28;20215;-79
2021/10/09 08:24:56;;;;;;;118.63;36.10;;;;;10.90;102393.00;;;;10267165;28;20204;-79
2021/10/09 08:35:35;;;;;;;83.83;35.33;;;;;11.30;102410.00;;;;10360757;28;20203;-80
2021/10/09 08:40:36;;;;;;;72.53;35.47;;;;;11.00;102411.00;;;;10317161;28;20223;-80
2021/10/09 08:45:37;;;;;;;63.83;36.90;;;;;10.90;102408.00;;;;10307045;28;20195;-81
2021/10/09 08:50:41;;;;;;;74.13;37.97;;;;;11.30;102397.00;;;;10289786;28;20203;-78
2021/10/09 08:55:48;;;;;;;63.20;38.37;;;;;11.40;102412.00;;;;10330852;28;20635;-80
2021/10/09 09:01:00;;;;;;;71.47;39.67;;;;;11.70;102406.00;;;;10333338;28;20236;-78
2021/10/09 09:06:26;;;;;;;71.60;39.97;;;;;11.70;102406.00;;;;10332209;28;20233;-81
2021/10/09 09:33:32;;;;;;;64.40;42.33;;;;;13.30;102440.00;;;;10355007;28;20203;-78
2021/10/09 09:43:17;;;;;;;57.70;42.77;;;;;14.10;102418.00;;;;10355967;28;20227;-80
2021/10/09 09:48:20;;;;;;;56.57;38.90;;;;;14.40;102412.00;;;;10338823;28;20272;-80
2021/10/09 09:53:23;;;;;;;49.93;36.20;;;;;14.60;102415.00;;;;10322631;28;20290;-81
2021/10/09 09:58:25;;;;;;;42.13;34.50;;;;;14.80;102416.00;;;;10315272;28;20216;-80
2021/10/09 10:03:29;;;;;;;49.73;38.00;;;;;15.10;102406.00;;;;10325947;28;20224;-80
2021/10/09 10:08:31;;;;;;;43.87;34.80;;;;;15.40;102399.00;;;;10302552;28;20716;-80
2021/10/09 10:13:33;;;;;;;35.93;28.10;;;;;15.70;102411.00;;;;10307715;28;20200;-79
2021/10/09 10:18:43;;;;;;;34.75;24.98;;;;;16.10;102401.00;;;;10297047;28;20201;-78
2021/10/09 10:23:46;;;;;;;32.00;26.52;;;;;16.40;102407.00;;;;10307173;28;20215;-77
2021/10/09 10:29:08;;;;;;;31.88;27.65;;;;;16.70;102405.00;;;;10302017;28;20214;-78
2021/10/09 10:34:23;;;;;;;36.92;26.20;;;;;17.00;102404.00;;;;10320900;28;20199;-77
2021/10/09 10:39:41;;;;;;;30.85;25.65;;;;;17.40;102392.00;;;;10338033;28;20962;-77
2021/10/09 10:44:56;;;;;;;32.65;26.50;;;;;17.70;102389.00;;;;10355145;28;20285;-79
2021/10/09 10:50:06;;;;;;;29.60;23.88;;;;;18.00;102390.00;;;;10313116;28;20211;-80
2021/10/09 10:55:08;;;;;;;34.47;25.73;;;;;18.30;102388.00;;;;10352386;28;20223;-79
2021/10/09 11:00:14;;;;;;;38.05;26.95;;;;;18.60;102386.00;;;;10312087;28;20780;-79
2021/10/09 11:05:17;;;;;;;36.50;26.42;;;;;18.80;102378.00;;;;10300995;28;20700;-77
2021/10/09 11:10:20;;;;;;;31.95;25.35;;;;;19.00;102371.00;;;;10344865;28;20254;-77
2021/10/09 11:15:23;;;;;;;27.10;23.02;;;;;19.20;102364.00;;;;10337160;28;20212;-77
2021/10/09 11:20:32;;;;;;;30.17;23.23;;;;;19.20;102366.00;;;;10310006;28;20223;-77
2021/10/09 11:25:37;;;;;;;28.63;22.58;;;;;19.30;102349.00;;;;10334074;28;20212;-78
2021/10/09 11:30:38;;;;;;;30.67;22.58;;;;;19.40;102366.00;;;;10340666;28;20196;-77
2021/10/09 11:35:41;;;;;;;31.02;22.20;;;;;19.40;102353.00;;;;10340396;28;20203;-76
2021/10/09 11:41:08;;;;;;;27.33;22.02;;;;;19.40;102347.00;;;;10341168;28;20614;-77
2021/10/09 11:56:27;;;;;;;27.77;21.27;;;;;19.60;102337.00;;;;10322123;28;20231;-79
2021/10/09 12:01:41;;;;;;;26.77;18.98;;;;;19.70;102339.00;;;;10338428;28;20224;-79
2021/10/09 12:06:47;;;;;;;21.90;17.80;;;;;19.70;102330.00;;;;10322807;28;20201;-78
2021/10/09 12:11:48;;;;;;;21.77;17.52;;;;;19.70;102328.00;;;;10304262;28;20207;-79
2021/10/09 12:16:57;;;;;;;25.85;18.92;;;;;19.70;102329.00;;;;10309324;28;20610;-80
2021/10/09 12:22:08;;;;;;;22.67;18.52;;;;;19.80;102328.00;;;;10334327;28;20211;-80
2021/10/09 12:27:17;;;;;;;23.92;17.05;;;;;19.90;102323.00;;;;10332343;28;20784;-81
2021/10/09 12:32:20;;;;;;;20.65;16.23;;;;;19.90;102316.00;;;;10353193;28;20707;-80
2021/10/09 12:37:34;;;;;;;17.38;14.50;;;;;19.90;102311.00;;;;10323942;28;20196;-80
2021/10/09 12:42:35;;;;;;;17.42;13.55;;;;;20.00;102308.00;;;;10316977;28;20219;-78
2021/10/09 12:47:36;;;;;;;19.05;15.57;;;;;20.10;102307.00;;;;10346571;28;20208;-79
2021/10/09 12:52:38;;;;;;;18.55;13.38;;;;;20.10;102306.00;;;;10339159;28;20227;-78
2021/10/09 12:57:50;;;;;;;14.25;11.15;;;;;20.10;102300.00;;;;10369398;28;20227;-80
2021/10/09 13:02:52;;;;;;;16.65;13.60;;;;;20.10;102289.00;;;;10327590;28;20645;-80
2021/10/09 13:07:55;;;;;;;13.88;11.55;;;;;20.00;102296.00;;;;10332174;28;20286;-80
2021/10/09 13:12:56;;;;;;;13.52;9.98;;;;;19.90;102288.00;;;;10355689;28;20227;-80
2021/10/09 13:17:57;;;;;;;15.52;10.45;;;;;19.80;102295.00;;;;10310862;28;20200;-80
2021/10/09 13:22:59;;;;;;;14.32;10.45;;;;;19.60;102282.00;;;;10336498;28;20230;-81
2021/10/09 13:28:04;;;;;;;15.85;11.45;;;;;19.60;102276.00;;;;10327793;28;20609;-80
2021/10/09 13:33:06;;;;;;;19.92;11.98;;;;;19.50;102281.00;;;;10316349;28;20318;-80
2021/10/09 13:38:09;;;;;;;15.23;10.73;;;;;19.40;102276.00;;;;10329978;28;20220;-80
2021/10/09 13:43:13;;;;;;;13.65;10.52;;;;;19.20;102281.00;;;;10345027;28;20227;-81
2021/10/09 13:48:15;;;;;;;12.35;10.48;;;;;19.10;102272.00;;;;10307294;28;20255;-80
2021/10/09 13:53:16;;;;;;;13.43;9.98;;;;;19.10;102261.00;;;;10345185;28;20207;-79
2021/10/09 13:58:18;;;;;;;12.65;9.95;;;;;19.00;102256.00;;;;10358536;28;20233;-79
2021/10/09 14:03:19;;;;;;;13.00;9.82;;;;;18.90;102258.00;;;;10317665;28;20223;-79
2021/10/09 14:08:20;;;;;;;9.98;8.93;;;;;18.50;102254.00;;;;10312429;28;20795;-79
2021/10/09 14:13:23;;;;;;;13.43;10.55;;;;;18.30;102253.00;;;;10306766;28;20606;-80
2021/10/09 14:18:24;;;;;;;13.52;8.82;;;;;18.40;102237.00;;;;10283175;28;20295;-80
2021/10/09 14:23:26;;;;;;;12.43;9.38;;;;;18.40;102241.00;;;;10321044;28;20230;-80
2021/10/09 14:28:29;;;;;;;17.75;10.40;;;;;18.10;102237.00;;;;10328088;28;21140;-79
2021/10/09 14:33:31;;;;;;;11.00;7.50;;;;;18.40;102226.00;;;;10342020;28;20207;-80
2021/10/09 14:38:32;;;;;;;12.60;8.93;;;;;18.60;102192.00;;;;10329841;28;20255;-79
2021/10/09 14:43:34;;;;;;;12.95;9.75;;;;;18.80;102221.00;;;;10327754;28;20302;-79
2021/10/09 14:48:38;;;;;;;14.35;9.35;;;;;17.90;102212.00;;;;10308234;28;20743;-80
2021/10/09 15:20:34;;;;;;;15.07;9.52;;;;;16.90;102197.00;;;;10337540;28;20223;-80
2021/10/09 15:25:35;;;;;;;14.75;9.93;;;;;16.70;102194.00;;;;10323209;28;20290;-79
2021/10/09 15:30:37;;;;;;;14.27;9.88;;;;;16.60;102191.00;;;;10326363;28;20207;-80
2021/10/09 15:35:38;;;;;;;13.02;9.65;;;;;16.60;102187.00;;;;10337966;28;20223;-79
2021/10/09 15:40:39;;;;;;;16.20;10.50;;;;;16.40;102185.00;;;;10319955;28;20232;-80
2021/10/09 15:45:40;;;;;;;13.32;10.00;;;;;16.40;102187.00;;;;10309147;28;20215;-80
2021/10/09 15:50:42;;;;;;;14.40;10.20;;;;;16.30;102186.00;;;;10340395;28;20203;-79
2021/10/09 15:55:44;;;;;;;11.88;9.77;;;;;16.20;102191.00;;;;10327193;28;20227;-79
2021/10/09 16:00:46;;;;;;;14.52;10.13;;;;;16.20;102190.00;;;;10341992;28;20207;-80
2021/10/09 16:05:47;;;;;;;15.00;10.55;;;;;16.00;102191.00;;;;10314284;28;20258;-80
2021/10/09 16:10:50;;;;;;;13.45;10.52;;;;;15.90;102191.00;;;;10336569;28;20214;-80
2021/10/09 16:15:51;;;;;;;13.77;11.02;;;;;15.70;102201.00;;;;10336791;28;20242;-78
2021/10/09 16:20:52;;;;;;;15.25;10.88;;;;;15.50;102200.00;;;;10326038;28;20220;-80
2021/10/09 16:25:53;;;;;;;13.85;11.52;;;;;15.30;102193.00;;;;10300826;28;20206;-80
2021/10/09 16:30:55;;;;;;;14.73;11.33;;;;;15.00;102203.00;;;;10305765;28;20222;-79
2021/10/09 16:35:57;;;;;;;15.50;11.60;;;;;14.70;102194.00;;;;10311109;28;20208;-79
2021/10/09 16:40:59;;;;;;;17.07;11.87;;;;;14.50;102202.00;;;;10301646;28;20224;-79
2021/10/09 16:46:01;;;;;;;17.57;12.60;;;;;14.20;102194.00;;;;10311393;28;20193;-80
2021/10/09 16:51:03;;;;;;;18.50;13.40;;;;;13.90;102211.00;;;;10316080;28;20208;-79
2021/10/09 16:56:04;;;;;;;17.27;13.07;;;;;13.70;102213.00;;;;10323965;28;20674;-80
2021/10/09 17:01:06;;;;;;;20.53;14.63;;;;;13.40;102212.00;;;;10313292;28;20215;-78
2021/10/09 17:06:08;;;;;;;21.23;14.80;;;;;13.20;102212.00;;;;10330396;28;20209;-78
2021/10/09 17:11:09;;;;;;;22.87;15.53;;;;;13.00;102227.00;;;;10306538;28;20204;-78
2021/10/09 17:16:10;;;;;;;25.87;15.17;;;;;12.80;102222.00;;;;10314968;28;20195;-78
2021/10/09 17:21:12;;;;;;;18.47;15.13;;;;;12.60;102226.00;;;;10306683;28;20223;-78
2021/10/09 17:26:13;;;;;;;17.70;15.07;;;;;12.30;102231.00;;;;10298483;28;20247;-79
2021/10/09 17:31:14;;;;;;;22.00;15.63;;;;;12.20;102231.00;;;;10307307;28;20287;-79
2021/10/09 17:36:16;;;;;;;20.50;15.57;;;;;12.00;102222.00;;;;10309644;28;20203;-78
2021/10/09 17:41:21;;;;;;;23.73;17.43;;;;;11.90;102228.00;;;;10326734;28;20285;-78
2021/10/09 17:46:22;;;;;;;27.60;21.23;;;;;11.90;102228.00;;;;10328375;28;20261;-79
2021/10/09 17:51:29;;;;;;;26.63;20.77;;;;;11.80;102219.00;;;;10303713;28;20259;-79
2021/10/09 17:56:30;;;;;;;28.10;22.13;;;;;11.70;102229.00;;;;10328992;28;20227;-78
2021/10/09 18:01:31;;;;;;;30.53;23.47;;;;;11.60;102224.00;;;;10297926;28;20320;-79
2021/10/09 18:06:33;;;;;;;31.03;23.00;;;;;11.50;102229.00;;;;10341649;28;20227;-78
2021/10/09 18:11:36;;;;;;;25.20;18.67;;;;;11.40;102227.00;;;;10307727;28;20204;-79
2021/10/09 18:16:37;;;;;;;26.97;19.13;;;;;11.20;102220.00;;;;10287238;28;20199;-78
2021/10/09 18:21:38;;;;;;;29.57;19.80;;;;;11.20;102220.00;;;;10318918;28;20223;-78
2021/10/09 18:26:40;;;;;;;27.20;19.43;;;;;11.20;102224.00;;;;10326957;28;20238;-78
2021/10/09 18:31:41;;;;;;;30.20;17.93;;;;;11.10;102214.00;;;;10343267;28;20269;-78
2021/10/09 18:36:42;;;;;;;24.17;18.13;;;;;11.00;102216.00;;;;10339256;28;20211;-78
2021/10/09 18:41:43;;;;;;;24.17;17.07;;;;;10.90;102215.00;;;;10314191;28;20262;-80
2021/10/09 18:46:45;;;;;;;25.13;18.00;;;;;10.70;102213.00;;;;10308565;28;20195;-78
2021/10/09 18:51:46;;;;;;;30.90;19.93;;;;;10.60;102214.00;;;;10335815;28;20214;-78
2021/10/09 18:56:47;;;;;;;29.73;20.83;;;;;10.50;102214.00;;;;10311554;28;20223;-78
2021/10/09 19:01:48;;;;;;;31.30;21.87;;;;;10.40;102209.00;;;;10342982;28;20219;-78
2021/10/09 19:06:50;;;;;;;31.67;22.47;;;;;10.40;102219.00;;;;10303108;28;20313;-78
2021/10/09 19:11:52;;;;;;;28.53;21.77;;;;;10.30;102210.00;;;;10266255;28;20199;-78
2021/10/09 19:16:54;;;;;;;28.77;21.27;;;;;10.10;102221.00;;;;10317508;28;20214;-78
2021/10/09 19:21:56;;;;;;;32.57;22.23;;;;;10.00;102217.00;;;;10337960;28;20223;-78
2021/10/09 19:26:58;;;;;;;40.93;23.80;;;;;9.90;102214.00;;;;10286146;28;20659;-78
2021/10/09 19:32:03;;;;;;;38.23;27.50;;;;;9.80;102210.00;;;;10333083;28;20197;-79
2021/10/09 19:37:12;;;;;;;40.57;27.60;;;;;9.70;102205.00;;;;10342130;28;20211;-79
2021/10/09 19:42:13;;;;;;;43.60;30.83;;;;;9.50;102198.00;;;;10257825;28;20231;-78
2021/10/09 19:47:19;;;;;;;50.10;31.80;;;;;9.50;102198.00;;;;10281355;28;20211;-79
2021/10/09 19:52:22;;;;;;;50.80;34.00;;;;;9.40;102204.00;;;;10317743;28;20882;-79
2021/10/09 19:57:24;;;;;;;43.43;31.40;;;;;9.30;102205.00;;;;10341381;28;20219;-78
2021/10/09 20:02:25;;;;;;;45.70;34.00;;;;;9.20;102204.00;;;;10307592;28;20219;-79
2021/10/09 20:07:27;;;;;;;50.80;36.07;;;;;9.20;102212.00;;;;10324405;28;20582;-78
2021/10/09 20:17:29;;;;;;;46.10;33.70;;;;;9.10;102213.00;;;;10340690;28;20212;-78
2021/10/09 20:22:31;;;;;;;44.97;31.80;;;;;9.00;102222.00;;;;10307968;28;20219;-78
2021/10/09 20:27:34;;;;;;;45.80;31.57;;;;;8.90;102219.00;;;;10325179;28;20208;-78
2021/10/09 20:32:35;;;;;;;45.67;30.37;;;;;8.80;102215.00;;;;10285011;28;20199;-79
2021/10/09 20:37:36;;;;;;;43.90;30.17;;;;;8.70;102226.00;;;;10311146;28;20210;-78
2021/10/09 20:42:38;;;;;;;47.70;32.90;;;;;8.60;102229.00;;;;10322520;28;20224;-78
2021/10/09 20:47:39;;;;;;;47.47;34.13;;;;;8.60;102234.00;;;;10307252;28;20199;-78
2021/10/09 20:52:41;;;;;;;50.00;34.17;;;;;8.60;102235.00;;;;10314414;28;20208;-78
2021/10/09 20:57:42;;;;;;;49.53;35.43;;;;;8.50;102235.00;;;;10322941;28;20223;-77
2021/10/09 21:02:43;;;;;;;48.67;35.70;;;;;8.50;102239.00;;;;10289278;28;20228;-78
2021/10/09 21:07:47;;;;;;;50.33;34.43;;;;;8.40;102235.00;;;;10328351;28;20290;-78
2021/10/09 21:23:19;;;;;;;46.33;32.23;;;;;8.20;102245.00;;;;10335558;28;20680;-78
2021/10/09 21:28:21;;;;;;;48.13;32.50;;;;;8.20;102249.00;;;;10298835;28;20221;-78
2021/10/09 21:33:22;;;;;;;51.83;35.03;;;;;8.10;102242.00;;;;10312760;28;20208;-78
2021/10/09 21:38:32;;;;;;;50.17;34.47;;;;;8.00;102244.00;;;;10315836;28;20196;-78
2021/10/09 21:43:33;;;;;;;47.40;34.10;;;;;8.00;102237.00;;;;10310756;28;20280;-78
2021/10/09 21:48:34;;;;;;;48.07;33.13;;;;;8.00;102230.00;;;;10324402;28;20214;-78
2021/10/09 21:53:37;;;;;;;49.77;35.20;;;;;7.90;102229.00;;;;10329674;28;20207;-78
2021/10/09 22:19:55;;;;;;;51.40;31.93;;;;;7.70;102224.00;;;;10307104;28;20196;-78
2021/10/09 22:35:36;;;;;;;51.20;33.70;;;;;7.50;102232.00;;;;10269758;28;20207;-78
2021/10/09 22:40:39;;;;;;;49.23;33.57;;;;;7.50;102230.00;;;;10327312;28;20277;-77
2021/10/09 22:45:55;;;;;;;52.47;34.53;;;;;7.40;102230.00;;;;10299662;28;20203;-78
2021/10/09 22:50:57;;;;;;;52.83;34.00;;;;;7.40;102237.00;;;;10312888;28;20282;-78
2021/10/09 22:55:59;;;;;;;50.77;33.50;;;;;7.30;102235.00;;;;10304798;28;20228;-78
2021/10/09 23:01:04;;;;;;;55.83;34.57;;;;;7.30;102238.00;;;;10310851;28;20729;-79
2021/10/09 23:06:06;;;;;;;48.43;32.50;;;;;7.10;102236.00;;;;10313022;28;20849;-77
2021/10/09 23:11:07;;;;;;;46.00;31.67;;;;;7.10;102236.00;;;;10313073;28;20226;-77
2021/10/09 23:16:08;;;;;;;49.80;33.43;;;;;7.00;102235.00;;;;10328613;28;20215;-78
2021/10/09 23:21:09;;;;;;;51.83;34.03;;;;;7.00;102233.00;;;;10275661;28;20216;-78
2021/10/09 23:26:11;;;;;;;54.57;35.23;;;;;7.00;102232.00;;;;10278251;28;20196;-80
2021/10/09 23:31:12;;;;;;;59.03;33.83;;;;;7.00;102230.00;;;;10309567;28;20226;-77
2021/10/09 23:36:15;;;;;;;51.70;33.50;;;;;6.90;102231.00;;;;10311004;28;20682;-78
2021/10/09 23:41:16;;;;;;;53.63;35.00;;;;;6.80;102233.00;;;;10311946;28;20227;-77
2021/10/09 23:46:17;;;;;;;52.67;34.77;;;;;6.80;102232.00;;;;10326826;28;20432;-78
2021/10/09 23:51:19;;;;;;;53.57;34.40;;;;;6.70;102234.00;;;;10326798;28;20208;-78
2021/10/09 23:56:20;;;;;;;49.70;33.07;;;;;6.70;102226.00;;;;10321647;28;20227;-78
